createdAt,value
2022-08-05T00:00:15.919Z,93708.63
2022-08-05T00:02:50.733Z,93713.91
2022-08-05T00:06:02.632Z,93708.47
2022-08-05T00:08:30.867Z,93714.03
2022-08-05T00:10:53.729Z,93707.91
2022-08-05T00:13:20.507Z,93710.09
2022-08-05T00:16:06.740Z,93707.81
2022-08-05T00:18:36.349Z,93714.75
2022-08-05T00:21:06.954Z,93705.53
2022-08-05T00:23:46.229Z,93703.53
2022-08-05T00:26:17.018Z,93710.75
2022-08-05T00:28:45.728Z,93711.50
2022-08-05T00:31:13.224Z,93707.97
2022-08-05T00:34:56.930Z,93713.25
2022-08-05T00:37:12.908Z,93714.19
2022-08-05T00:39:13.908Z,93716.31
2022-08-05T00:41:51.750Z,93725.66
2022-08-05T00:44:21.578Z,93738.91
2022-08-05T00:46:53.956Z,93746.88
2022-08-05T00:49:32.349Z,93741.78
2022-08-05T00:52:00.396Z,93754.59
2022-08-05T00:54:27.961Z,93750.66
2022-08-05T00:56:55.018Z,93746.31
2022-08-05T00:59:21.641Z,93749.00
2022-08-05T01:01:49.319Z,93732.22
2022-08-05T01:04:16.185Z,93738.66
2022-08-05T01:06:48.727Z,93740.56
2022-08-05T01:09:17.279Z,93747.75
2022-08-05T01:11:50.026Z,93730.41
2022-08-05T01:14:27.915Z,93730.34
2022-08-05T01:17:10.147Z,93730.34
2022-08-05T01:20:01.682Z,93727.22
2022-08-05T01:22:38.275Z,93720.81
2022-08-05T01:25:40.825Z,93722.69
2022-08-05T01:28:16.875Z,93727.06
2022-08-05T01:31:08.964Z,93725.53
2022-08-05T01:33:42.934Z,93717.88
2022-08-05T01:36:19.021Z,93720.16
2022-08-05T01:38:49.880Z,93718.66
2022-08-05T01:41:21.688Z,93715.09
2022-08-05T01:43:50.946Z,93730.47
2022-08-05T01:46:41.968Z,93720.28
2022-08-05T01:49:22.681Z,93730.47
2022-08-05T01:51:56.307Z,93725.94
2022-08-05T01:54:30.369Z,93730.19
2022-08-05T01:58:10.383Z,93721.59
2022-08-05T01:59:49.267Z,93727.97
2022-08-05T02:02:20.059Z,93731.50
2022-08-05T02:04:58.225Z,93736.91
2022-08-05T02:07:25.726Z,93744.00
2022-08-05T02:09:57.616Z,93741.41
2022-08-05T02:12:33.174Z,93750.59
2022-08-05T02:15:12.635Z,93759.56
2022-08-05T02:18:32.941Z,93784.16
2022-08-05T02:20:49.560Z,93794.75
2022-08-05T02:23:22.542Z,93792.84
2022-08-05T02:25:51.205Z,93800.53
2022-08-05T02:28:28.651Z,93794.16
2022-08-05T02:31:21.249Z,93784.44
2022-08-05T02:33:57.549Z,93786.44
2022-08-05T02:36:27.511Z,93785.91
2022-08-05T02:39:00.228Z,93793.56
2022-08-05T02:41:36.423Z,93802.31
2022-08-05T02:44:17.936Z,93799.13
2022-08-05T02:46:58.312Z,93808.94
2022-08-05T02:49:36.773Z,93815.09
2022-08-05T02:52:08.746Z,93818.34
2022-08-05T02:54:41.368Z,93808.72
2022-08-05T02:58:12.050Z,93822.00
2022-08-05T03:00:01.586Z,93812.59
2022-08-05T03:02:39.071Z,93815.66
2022-08-05T03:05:09.401Z,93814.69
2022-08-05T03:08:01.736Z,93819.59
2022-08-05T03:10:25.678Z,93816.06
2022-08-05T03:12:54.116Z,93814.91
2022-08-05T03:15:23.711Z,93817.28
2022-08-05T03:17:55.940Z,93820.06
2022-08-05T03:20:24.827Z,93820.06
2022-08-05T03:22:53.206Z,93815.66
2022-08-05T03:25:33.904Z,93818.06
2022-08-05T03:28:13.959Z,93810.09
2022-08-05T03:30:42.399Z,93812.97
2022-08-05T03:33:09.509Z,93810.16
2022-08-05T03:35:40.761Z,93822.34
2022-08-05T03:38:10.619Z,93818.63
2022-08-05T03:40:41.031Z,93815.34
2022-08-05T03:43:58.722Z,93819.22
2022-08-05T03:45:55.109Z,93820.47
2022-08-05T03:48:29.083Z,93818.75
2022-08-05T03:52:35.347Z,93822.06
2022-08-05T03:56:01.873Z,93817.38
2022-08-05T03:56:50.120Z,93817.00
2022-08-05T03:59:21.824Z,93818.66
2022-08-05T04:01:53.623Z,93818.78
2022-08-05T04:04:28.034Z,93808.56
2022-08-05T04:06:55.560Z,93811.94
2022-08-05T04:09:25.985Z,93802.72
2022-08-05T04:11:56.416Z,93807.97
2022-08-05T04:14:30.622Z,93814.56
2022-08-05T04:17:00.492Z,93813.81
2022-08-05T04:19:30.159Z,93802.69
2022-08-05T04:22:08.602Z,93808.44
2022-08-05T04:24:43.824Z,93812.19
2022-08-05T04:27:12.949Z,93814.59
2022-08-05T04:29:41.391Z,93822.84
2022-08-05T04:32:09.286Z,93818.16
2022-08-05T04:34:42.658Z,93829.28
2022-08-05T04:37:09.906Z,93816.81
2022-08-05T04:39:37.707Z,93815.13
2022-08-05T04:42:06.240Z,93819.59
2022-08-05T04:44:33.219Z,93818.03
2022-08-05T04:47:00.107Z,93817.44
2022-08-05T04:49:38.894Z,93815.19
2022-08-05T04:52:24.197Z,93819.59
2022-08-05T04:54:54.699Z,93822.31
2022-08-05T04:57:29.262Z,93816.91
2022-08-05T04:59:58.302Z,93816.97
2022-08-05T05:02:36.136Z,93817.44
2022-08-05T05:05:26.497Z,93813.56
2022-08-05T05:08:06.708Z,93823.34
2022-08-05T05:10:47.274Z,93820.16
2022-08-05T05:13:22.768Z,93820.72
2022-08-05T05:18:31.646Z,93837.34
2022-08-05T05:21:01.767Z,93847.22
2022-08-05T05:23:39.407Z,93860.13
2022-08-05T05:26:15.356Z,93873.13
2022-08-05T05:28:42.924Z,93874.66
2022-08-05T05:31:12.000Z,93899.28
2022-08-05T05:33:58.610Z,93904.38
2022-08-05T05:36:25.441Z,93913.34
2022-08-05T05:38:57.105Z,93908.66
2022-08-05T05:41:24.030Z,93903.16
2022-08-05T05:43:57.319Z,93889.31
2022-08-05T05:46:25.379Z,93887.31
2022-08-05T05:48:52.047Z,93901.91
2022-08-05T05:51:22.015Z,93900.41
2022-08-05T05:53:58.079Z,93895.09
2022-08-05T05:56:32.825Z,93898.53
2022-08-05T05:59:06.456Z,93899.16
2022-08-05T06:01:41.200Z,93908.75
2022-08-05T06:04:24.807Z,93907.03
2022-08-05T06:06:51.505Z,93903.53
2022-08-05T06:09:26.634Z,93915.09
2022-08-05T06:12:05.720Z,93912.69
2022-08-05T06:14:36.342Z,93905.34
2022-08-05T06:17:22.458Z,93904.28
2022-08-05T06:19:57.232Z,93899.13
2022-08-05T06:22:28.827Z,93898.88
2022-08-05T06:24:55.880Z,93890.78
2022-08-05T06:28:11.033Z,93888.63
2022-08-05T06:30:17.773Z,93896.69
2022-08-05T06:32:46.902Z,93882.28
2022-08-05T06:35:22.111Z,93877.81
2022-08-05T06:38:04.287Z,93868.63
2022-08-05T06:40:36.977Z,93868.56
2022-08-05T06:43:57.868Z,93866.91
2022-08-05T06:46:06.828Z,93866.03
2022-08-05T06:48:55.304Z,93869.31
2022-08-05T06:51:29.370Z,93879.44
2022-08-05T06:54:02.439Z,93891.06
2022-08-05T06:56:33.321Z,93895.25
2022-08-05T06:59:09.547Z,93902.00
2022-08-05T07:01:40.908Z,93904.28
2022-08-05T07:04:09.375Z,93909.84
2022-08-05T07:06:36.988Z,93905.91
2022-08-05T07:09:04.760Z,93906.41
2022-08-05T07:11:33.027Z,93917.97
2022-08-05T07:14:29.320Z,93916.31
2022-08-05T07:17:58.198Z,93916.19
2022-08-05T07:20:32.107Z,93923.91
2022-08-05T07:22:37.138Z,93939.41
2022-08-05T07:25:21.697Z,93937.09
2022-08-05T07:27:57.793Z,93942.50
2022-08-05T07:30:38.679Z,93951.53
2022-08-05T07:33:10.406Z,93954.28
2022-08-05T07:36:02.710Z,93955.16
2022-08-05T07:38:33.677Z,93959.16
2022-08-05T07:42:08.400Z,93966.75
2022-08-05T07:44:02.833Z,93947.44
2022-08-05T07:46:31.890Z,93961.25
2022-08-05T07:49:05.828Z,93965.44
2022-08-05T07:51:40.554Z,93972.31
2022-08-05T07:54:15.886Z,93961.78
2022-08-05T07:57:13.977Z,93965.84
2022-08-05T07:59:39.918Z,93964.84
2022-08-05T08:02:15.750Z,93979.00
2022-08-05T08:04:48.343Z,93985.03
2022-08-05T08:07:17.735Z,93987.72
2022-08-05T08:09:45.152Z,93992.38
2022-08-05T08:12:35.157Z,93987.13
2022-08-05T08:15:03.535Z,93987.69
2022-08-05T08:17:32.655Z,93988.84
2022-08-05T08:20:21.859Z,93987.72
2022-08-05T08:22:55.833Z,93985.88
2022-08-05T08:25:27.119Z,93975.66
2022-08-05T08:28:18.027Z,93970.03
2022-08-05T08:30:48.029Z,93968.84
2022-08-05T08:33:16.719Z,93978.13
2022-08-05T08:35:53.151Z,93981.25
2022-08-05T08:38:36.060Z,93988.16
2022-08-05T08:41:10.428Z,93994.19
2022-08-05T08:45:16.877Z,93980.97
2022-08-05T08:46:31.115Z,93988.66
2022-08-05T08:50:03.922Z,93978.75
2022-08-05T08:52:02.928Z,93979.41
2022-08-05T08:54:31.872Z,93990.50
2022-08-05T08:56:59.540Z,93991.59
2022-08-05T08:59:27.564Z,93995.50
2022-08-05T09:01:57.002Z,93991.22
2022-08-05T09:04:30.688Z,93995.63
2022-08-05T09:06:58.488Z,93982.75
2022-08-05T09:09:34.802Z,93972.56
2022-08-05T09:12:20.050Z,93967.91
2022-08-05T09:14:58.375Z,93980.31
2022-08-05T09:17:42.687Z,93976.66
2022-08-05T09:20:13.294Z,93968.44
2022-08-05T09:23:05.151Z,93977.78
2022-08-05T09:26:02.077Z,93976.25
2022-08-05T09:28:24.297Z,93983.28
2022-08-05T09:31:23.214Z,93985.16
2022-08-05T09:34:01.311Z,93980.50
2022-08-05T09:36:38.901Z,93982.09
2022-08-05T09:39:22.471Z,93985.13
2022-08-05T09:41:56.889Z,93983.81
2022-08-05T09:44:39.153Z,93977.25
2022-08-05T09:47:10.456Z,93962.47
2022-08-05T09:50:01.610Z,93956.88
2022-08-05T09:52:31.841Z,93960.06
2022-08-05T09:55:55.530Z,93961.66
2022-08-05T09:57:48.497Z,93948.03
2022-08-05T10:00:18.741Z,93946.19
2022-08-05T10:02:48.975Z,93937.06
2022-08-05T10:05:18.644Z,93935.28
2022-08-05T10:08:35.229Z,93936.56
2022-08-05T10:10:50.393Z,93932.44
2022-08-05T10:13:46.311Z,93929.25
2022-08-05T10:16:41.845Z,93922.34
2022-08-05T10:19:23.516Z,93919.63
2022-08-05T10:22:09.081Z,93920.50
2022-08-05T10:24:42.697Z,93909.78
2022-08-05T10:27:16.610Z,93916.75
2022-08-05T10:30:06.952Z,93902.00
2022-08-05T10:32:55.633Z,93892.16
2022-08-05T10:35:19.398Z,93903.41
2022-08-05T10:37:47.722Z,93900.16
2022-08-05T10:40:27.951Z,93898.72
2022-08-05T10:43:04.735Z,93890.88
2022-08-05T10:45:42.147Z,93895.81
2022-08-05T10:48:52.572Z,93892.28
2022-08-05T10:51:28.956Z,93898.47
2022-08-05T10:54:01.867Z,93900.91
2022-08-05T10:56:55.839Z,93904.13
2022-08-05T11:00:02.569Z,93901.56
2022-08-05T11:02:37.821Z,93917.25
2022-08-05T11:05:09.496Z,93909.09
2022-08-05T11:08:02.476Z,93911.19
2022-08-05T11:10:37.259Z,93902.19
2022-08-05T11:13:06.482Z,93903.97
2022-08-05T11:16:00.068Z,93911.41
2022-08-05T11:18:30.085Z,93917.81
2022-08-05T11:20:59.860Z,93917.50
2022-08-05T11:24:05.409Z,93916.72
2022-08-05T11:26:32.510Z,93909.34
2022-08-05T11:29:06.588Z,93902.78
2022-08-05T11:31:58.294Z,93895.41
2022-08-05T11:34:47.586Z,93901.06
2022-08-05T11:38:29.105Z,93909.59
2022-08-05T11:41:34.480Z,93898.66
2022-08-05T11:44:05.616Z,93898.91
2022-08-05T11:46:35.841Z,93902.72
2022-08-05T11:49:05.361Z,93886.53
2022-08-05T11:51:44.015Z,93885.69
2022-08-05T11:54:33.896Z,93883.78
2022-08-05T11:57:08.779Z,93880.31
2022-08-05T11:59:50.800Z,93885.66
2022-08-05T12:02:30.367Z,93877.97
2022-08-05T12:05:00.401Z,93881.78
2022-08-05T12:08:03.226Z,93884.88
2022-08-05T12:10:24.766Z,93879.03
2022-08-05T12:12:59.578Z,93872.66
2022-08-05T12:15:33.247Z,93868.31
2022-08-05T12:18:10.957Z,93877.44
2022-08-05T12:20:39.407Z,93882.38
2022-08-05T12:23:13.489Z,93880.09
2022-08-05T12:25:53.870Z,93862.28
2022-08-05T12:28:53.052Z,93864.63
2022-08-05T12:31:23.462Z,93859.63
2022-08-05T12:34:01.631Z,93859.47
2022-08-05T12:36:30.888Z,93863.63
2022-08-05T12:38:59.146Z,93871.78
2022-08-05T12:41:34.398Z,93872.44
2022-08-05T12:44:14.399Z,93872.59
2022-08-05T12:46:54.398Z,93876.22
2022-08-05T12:49:25.502Z,93873.66
2022-08-05T12:52:13.827Z,93866.66
2022-08-05T12:54:49.686Z,93864.88
2022-08-05T12:57:17.083Z,93869.78
2022-08-05T13:01:57.318Z,93857.59
2022-08-05T13:02:36.048Z,93846.22
2022-08-05T13:05:06.324Z,93844.63
2022-08-05T13:07:59.579Z,93847.75
2022-08-05T13:10:20.487Z,93834.50
2022-08-05T13:12:51.146Z,93832.34
2022-08-05T13:15:36.105Z,93822.91
2022-08-05T13:18:08.570Z,93809.66
2022-08-05T13:20:40.472Z,93805.75
2022-08-05T13:23:07.635Z,93804.31
2022-08-05T13:25:52.093Z,93810.38
2022-08-05T13:28:22.306Z,93808.75
2022-08-05T13:30:51.288Z,93797.13
2022-08-05T13:34:25.160Z,93806.47
2022-08-05T13:36:10.176Z,93801.34
2022-08-05T13:38:38.433Z,93786.69
2022-08-05T13:41:10.777Z,93789.78
2022-08-05T13:43:44.396Z,93790.97
2022-08-05T13:46:51.006Z,93779.59
2022-08-05T13:49:09.917Z,93777.50
2022-08-05T13:51:40.940Z,93773.09
2022-08-05T13:54:11.962Z,93770.63
2022-08-05T13:56:45.218Z,93778.03
2022-08-05T13:59:21.332Z,93775.97
2022-08-05T14:01:59.151Z,93773.88
2022-08-05T14:04:51.609Z,93766.09
2022-08-05T14:08:02.705Z,93771.38
2022-08-05T14:10:28.434Z,93766.91
2022-08-05T14:12:57.176Z,93761.88
2022-08-05T14:16:08.733Z,93755.47
2022-08-05T14:18:14.875Z,93772.69
2022-08-05T14:20:48.807Z,93766.16
2022-08-05T14:23:24.970Z,93761.88
2022-08-05T14:25:58.382Z,93764.78
2022-08-05T14:28:30.669Z,93766.38
2022-08-05T14:30:58.928Z,93758.50
2022-08-05T14:33:25.779Z,93755.84
2022-08-05T14:35:54.504Z,93757.66
2022-08-05T14:38:31.713Z,93756.44
2022-08-05T14:41:05.695Z,93769.78
2022-08-05T14:44:02.697Z,93762.06
2022-08-05T14:46:22.875Z,93757.34
2022-08-05T14:48:56.149Z,93755.78
2022-08-05T14:51:24.063Z,93755.84
2022-08-05T14:54:26.062Z,93754.72
2022-08-05T14:56:44.076Z,93761.97
2022-08-05T14:59:13.519Z,93756.94
2022-08-05T15:01:48.395Z,93758.81
2022-08-05T15:04:17.495Z,93758.09
2022-08-05T15:06:49.332Z,93753.44
2022-08-05T15:09:52.096Z,93752.38
2022-08-05T15:12:05.982Z,93747.06
2022-08-05T15:14:34.447Z,93755.97
2022-08-05T15:17:04.698Z,93758.91
2022-08-05T15:19:32.513Z,93763.88
2022-08-05T15:22:01.330Z,93761.28
2022-08-05T15:24:28.871Z,93772.22
2022-08-05T15:26:55.929Z,93805.13
2022-08-05T15:29:22.950Z,93816.16
2022-08-05T15:31:53.048Z,93830.97
2022-08-05T15:34:32.096Z,93853.94
2022-08-05T15:37:02.361Z,93847.00
2022-08-05T15:40:59.774Z,93845.19
2022-08-05T15:42:54.786Z,93877.59
2022-08-05T15:45:06.112Z,93885.13
2022-08-05T15:47:33.006Z,93859.66
2022-08-05T15:50:03.739Z,93845.44
2022-08-05T15:52:53.089Z,93850.88
2022-08-05T15:55:19.310Z,93847.28
2022-08-05T15:57:51.449Z,93845.78
2022-08-05T16:00:26.220Z,93842.97
2022-08-05T16:02:59.994Z,93831.97
2022-08-05T16:05:28.402Z,93829.13
2022-08-05T16:07:55.410Z,93833.94
2022-08-05T16:10:25.509Z,93847.69
2022-08-05T16:12:55.928Z,93848.78
2022-08-05T16:15:23.654Z,93860.28
2022-08-05T16:17:57.762Z,93863.25
2022-08-05T16:20:25.714Z,93871.88
2022-08-05T16:22:54.720Z,93870.53
2022-08-05T16:25:21.416Z,93860.31
2022-08-05T16:28:05.150Z,93857.69
2022-08-05T16:30:34.391Z,93855.88
2022-08-05T16:33:03.245Z,93850.00
2022-08-05T16:35:32.560Z,93851.28
2022-08-05T16:38:16.316Z,93853.06
2022-08-05T16:40:51.894Z,93851.97
2022-08-05T16:43:24.131Z,93850.69
2022-08-05T16:46:04.279Z,93856.88
2022-08-05T16:48:36.627Z,93859.22
2022-08-05T16:51:03.849Z,93852.81
2022-08-05T16:54:04.705Z,93852.22
2022-08-05T16:56:24.315Z,93850.66
2022-08-05T16:58:51.194Z,93842.81
2022-08-05T17:01:18.899Z,93827.72
2022-08-05T17:03:46.210Z,93830.47
2022-08-05T17:06:13.489Z,93833.97
2022-08-05T17:08:52.676Z,93842.84
2022-08-05T17:11:23.906Z,93834.22
2022-08-05T17:14:00.413Z,93843.22
2022-08-05T17:16:35.884Z,93840.25
2022-08-05T17:19:07.491Z,93842.94
2022-08-05T17:21:37.007Z,93842.69
2022-08-05T17:24:19.689Z,93845.13
2022-08-05T17:26:53.541Z,93853.88
2022-08-05T17:29:33.772Z,93852.53
2022-08-05T17:32:11.629Z,93845.53
2022-08-05T17:34:46.214Z,93856.53
2022-08-05T17:37:40.125Z,93869.97
2022-08-05T17:40:10.151Z,93873.19
2022-08-05T17:42:41.580Z,93876.03
2022-08-05T17:45:20.646Z,93880.94
2022-08-05T17:47:54.016Z,93880.81
2022-08-05T17:50:28.808Z,93886.72
2022-08-05T17:53:01.388Z,93892.69
2022-08-05T17:55:37.712Z,93888.63
2022-08-05T17:58:12.321Z,93886.59
2022-08-05T18:00:44.912Z,93887.63
2022-08-05T18:03:39.376Z,93897.81
2022-08-05T18:06:05.647Z,93910.09
2022-08-05T18:08:33.570Z,93910.56
2022-08-05T18:11:01.212Z,93913.81
2022-08-05T18:13:36.689Z,93923.72
2022-08-05T18:16:13.584Z,93947.84
2022-08-05T18:18:41.343Z,93955.00
2022-08-05T18:21:19.862Z,93986.31
2022-08-05T18:23:48.120Z,94005.94
2022-08-05T18:26:14.836Z,94008.44
2022-08-05T18:28:46.407Z,94011.81
2022-08-05T18:31:13.411Z,94004.63
2022-08-05T18:33:47.344Z,94003.53
2022-08-05T18:36:19.223Z,94002.00
2022-08-05T18:38:46.616Z,93997.78
2022-08-05T18:41:56.161Z,94001.81
2022-08-05T18:44:06.196Z,94006.66
2022-08-05T18:46:34.536Z,94006.38
2022-08-05T18:49:21.444Z,94012.88
2022-08-05T18:52:08.822Z,94017.53
2022-08-05T18:54:35.993Z,94020.06
2022-08-05T18:57:09.604Z,94025.91
2022-08-05T19:00:01.798Z,94020.59
2022-08-05T19:02:29.529Z,94028.81
2022-08-05T19:05:02.445Z,94033.06
2022-08-05T19:07:47.895Z,94043.34
2022-08-05T19:10:28.229Z,94048.34
2022-08-05T19:12:58.824Z,94044.22
2022-08-05T19:15:56.948Z,94047.31
2022-08-05T19:18:21.027Z,94044.22
2022-08-05T19:20:52.106Z,94048.88
2022-08-05T19:23:22.544Z,94049.03
2022-08-05T19:26:09.337Z,94058.22
2022-08-05T19:28:41.990Z,94071.19
2022-08-05T19:31:13.131Z,94081.84
2022-08-05T19:33:48.238Z,94081.91
2022-08-05T19:36:23.207Z,94092.81
2022-08-05T19:38:49.889Z,94100.50
2022-08-05T19:41:16.675Z,94104.25
2022-08-05T19:44:05.530Z,94102.09
2022-08-05T19:46:37.739Z,94103.50
2022-08-05T19:49:07.322Z,94109.59
2022-08-05T19:52:06.181Z,94111.50
2022-08-05T19:54:29.390Z,94120.34
2022-08-05T19:57:08.559Z,94134.63
2022-08-05T19:59:59.353Z,94151.94
2022-08-05T20:02:26.290Z,94156.16
2022-08-05T20:04:55.399Z,94170.41
2022-08-05T20:07:46.368Z,94180.00
2022-08-05T20:10:13.791Z,94183.81
2022-08-05T20:12:48.401Z,94193.63
2022-08-05T20:15:48.691Z,94191.22
2022-08-05T20:18:10.861Z,94197.16
2022-08-05T20:20:55.991Z,94200.63
2022-08-05T20:23:40.715Z,94197.47
2022-08-05T20:26:15.175Z,94188.59
2022-08-05T20:28:45.277Z,94189.69
2022-08-05T20:31:12.228Z,94200.53
2022-08-05T20:33:42.526Z,94206.53
2022-08-05T20:36:10.179Z,94229.59
2022-08-05T20:38:38.212Z,94246.63
2022-08-05T20:41:24.004Z,94246.44
2022-08-05T20:43:59.551Z,94253.69
2022-08-05T20:46:29.453Z,94264.06
2022-08-05T20:48:56.161Z,94279.88
2022-08-05T20:51:23.235Z,94283.94
2022-08-05T20:53:56.282Z,94301.81
2022-08-05T20:56:29.857Z,94313.84
2022-08-05T20:59:00.075Z,94313.41
2022-08-05T21:01:38.716Z,94306.16
2022-08-05T21:04:10.420Z,94313.31
2022-08-05T21:06:45.854Z,94313.16
2022-08-05T21:09:14.422Z,94314.78
2022-08-05T21:12:10.519Z,94320.19
2022-08-05T21:14:35.024Z,94317.91
2022-08-05T21:17:05.860Z,94314.03
2022-08-05T21:19:46.826Z,94324.28
2022-08-05T21:22:23.559Z,94308.00
2022-08-05T21:24:52.637Z,94308.81
2022-08-05T21:27:24.603Z,94310.50
2022-08-05T21:29:52.701Z,94316.03
2022-08-05T21:32:27.164Z,94310.59
2022-08-05T21:35:16.948Z,94300.47
2022-08-05T21:37:47.401Z,94309.25
2022-08-05T21:40:20.750Z,94307.22
2022-08-05T21:42:47.739Z,94309.88
2022-08-05T21:45:24.738Z,94302.09
2022-08-05T21:47:56.077Z,94305.25
2022-08-05T21:50:24.128Z,94308.50
2022-08-05T21:52:50.945Z,94310.78
2022-08-05T21:55:22.573Z,94312.03
2022-08-05T21:58:05.798Z,94322.88
2022-08-05T22:00:32.585Z,94322.56
2022-08-05T22:02:59.807Z,94325.03
2022-08-05T22:05:27.401Z,94327.97
2022-08-05T22:07:59.531Z,94327.69
2022-08-05T22:10:29.394Z,94323.81
2022-08-05T22:12:58.866Z,94327.38
2022-08-05T22:15:56.570Z,94336.81
2022-08-05T22:18:14.585Z,94328.13
2022-08-05T22:20:41.890Z,94331.22
2022-08-05T22:24:01.382Z,94326.88
2022-08-05T22:26:34.492Z,94331.69
2022-08-05T22:29:02.735Z,94329.50
2022-08-05T22:31:30.880Z,94332.84
2022-08-05T22:34:12.934Z,94343.91
2022-08-05T22:36:52.365Z,94341.97
2022-08-05T22:39:21.512Z,94348.97
2022-08-05T22:42:10.827Z,94347.81
2022-08-05T22:44:35.092Z,94354.97
2022-08-05T22:47:04.992Z,94357.13
2022-08-05T22:50:19.393Z,94360.72
2022-08-05T22:52:30.409Z,94343.38
2022-08-05T22:55:01.116Z,94349.53
2022-08-05T22:57:34.217Z,94348.91
2022-08-05T23:00:07.736Z,94343.53
2022-08-05T23:02:35.952Z,94330.47
2022-08-05T23:05:12.985Z,94331.03
2022-08-05T23:07:45.015Z,94329.25
2022-08-05T23:10:16.400Z,94341.50
2022-08-05T23:12:48.100Z,94348.38
2022-08-05T23:15:18.930Z,94336.59
2022-08-05T23:18:00.466Z,94335.81
2022-08-05T23:20:30.179Z,94348.06
2022-08-05T23:22:58.738Z,94355.22
2022-08-05T23:25:52.197Z,94349.53
2022-08-05T23:28:13.100Z,94345.81
2022-08-05T23:30:43.427Z,94357.41
2022-08-05T23:33:16.088Z,94346.72
2022-08-05T23:35:49.030Z,94350.19
2022-08-05T23:38:16.355Z,94342.72
2022-08-05T23:40:49.399Z,94346.53
2022-08-05T23:43:25.619Z,94349.06
2022-08-05T23:46:19.749Z,94351.91
2022-08-05T23:48:59.989Z,94344.50
2022-08-05T23:51:52.891Z,94352.00
2022-08-05T23:54:26.635Z,94345.66
2022-08-05T23:57:03.293Z,94346.50
2022-08-05T23:59:37.755Z,94348.00
